sensor_id;sensor_type;location;lat;lon;timestamp;P1;durP1;ratioP1;P2;durP2;ratioP2
40675;SDS011;26359;48.750;9.314;2023-08-24T00:02:06;18.85;;;17.35;;
40675;SDS011;26359;48.750;9.314;2023-08-24T00:04:32;17.45;;;16.17;;
40675;SDS011;26359;48.750;9.314;2023-08-24T00:06:59;16.83;;;15.43;;
40675;SDS011;26359;48.750;9.314;2023-08-24T00:09:24;14.27;;;13.18;;
40675;SDS011;26359;48.750;9.314;2023-08-24T00:11:50;14.90;;;13.80;;
40675;SDS011;26359;48.750;9.314;2023-08-24T00:14:15;18.15;;;16.77;;
40675;SDS011;26359;48.750;9.314;2023-08-24T00:16:42;24.27;;;22.58;;
40675;SDS011;26359;48.750;9.314;2023-08-24T00:19:08;24.70;;;22.75;;
40675;SDS011;26359;48.750;9.314;2023-08-24T00:21:33;22.33;;;20.60;;
40675;SDS011;26359;48.750;9.314;2023-08-24T00:23:59;19.88;;;18.33;;
40675;SDS011;26359;48.750;9.314;2023-08-24T00:26:24;18.27;;;16.83;;
40675;SDS011;26359;48.750;9.314;2023-08-24T00:28:50;20.17;;;18.80;;
40675;SDS011;26359;48.750;9.314;2023-08-24T00:31:16;29.50;;;27.48;;
40675;SDS011;26359;48.750;9.314;2023-08-24T00:33:42;26.08;;;23.85;;
40675;SDS011;26359;48.750;9.314;2023-08-24T00:36:07;20.42;;;18.70;;
40675;SDS011;26359;48.750;9.314;2023-08-24T00:38:33;18.15;;;16.85;;
40675;SDS011;26359;48.750;9.314;2023-08-24T00:40:59;19.40;;;17.75;;
40675;SDS011;26359;48.750;9.314;2023-08-24T00:43:25;21.20;;;19.33;;
40675;SDS011;26359;48.750;9.314;2023-08-24T00:45:51;17.17;;;15.75;;
40675;SDS011;26359;48.750;9.314;2023-08-24T00:48:17;14.52;;;13.18;;
40675;SDS011;26359;48.750;9.314;2023-08-24T00:50:50;15.43;;;14.13;;
40675;SDS011;26359;48.750;9.314;2023-08-24T00:53:20;15.15;;;13.85;;
40675;SDS011;26359;48.750;9.314;2023-08-24T00:55:48;13.93;;;12.90;;
40675;SDS011;26359;48.750;9.314;2023-08-24T00:58:14;18.58;;;17.27;;
40675;SDS011;26359;48.750;9.314;2023-08-24T01:00:40;26.42;;;24.55;;
40675;SDS011;26359;48.750;9.314;2023-08-24T01:03:06;20.65;;;19.15;;
40675;SDS011;26359;48.750;9.314;2023-08-24T01:05:31;22.45;;;20.45;;
40675;SDS011;26359;48.750;9.314;2023-08-24T01:07:57;20.60;;;18.88;;
40675;SDS011;26359;48.750;9.314;2023-08-24T01:10:23;18.25;;;16.65;;
40675;SDS011;26359;48.750;9.314;2023-08-24T01:12:56;17.55;;;16.20;;
40675;SDS011;26359;48.750;9.314;2023-08-24T01:15:27;17.63;;;16.15;;
40675;SDS011;26359;48.750;9.314;2023-08-24T01:18:00;16.67;;;15.15;;
40675;SDS011;26359;48.750;9.314;2023-08-24T01:20:29;16.48;;;15.07;;
40675;SDS011;26359;48.750;9.314;2023-08-24T01:22:58;16.42;;;15.00;;
40675;SDS011;26359;48.750;9.314;2023-08-24T01:28:16;32.08;;;29.90;;
40675;SDS011;26359;48.750;9.314;2023-08-24T01:30:43;36.90;;;34.38;;
40675;SDS011;26359;48.750;9.314;2023-08-24T01:33:09;34.85;;;32.45;;
40675;SDS011;26359;48.750;9.314;2023-08-24T01:35:37;32.15;;;30.08;;
40675;SDS011;26359;48.750;9.314;2023-08-24T01:38:03;30.92;;;29.02;;
40675;SDS011;26359;48.750;9.314;2023-08-24T01:40:36;33.08;;;30.90;;
40675;SDS011;26359;48.750;9.314;2023-08-24T01:43:10;33.22;;;31.02;;
40675;SDS011;26359;48.750;9.314;2023-08-24T01:45:39;34.22;;;31.05;;
40675;SDS011;26359;48.750;9.314;2023-08-24T01:48:06;32.72;;;30.48;;
40675;SDS011;26359;48.750;9.314;2023-08-24T01:50:34;28.73;;;26.50;;
40675;SDS011;26359;48.750;9.314;2023-08-24T01:53:00;26.38;;;24.30;;
40675;SDS011;26359;48.750;9.314;2023-08-24T01:55:26;25.73;;;23.65;;
40675;SDS011;26359;48.750;9.314;2023-08-24T01:57:52;18.27;;;16.98;;
40675;SDS011;26359;48.750;9.314;2023-08-24T02:00:20;18.15;;;16.52;;
40675;SDS011;26359;48.750;9.314;2023-08-24T02:02:45;16.70;;;15.27;;
40675;SDS011;26359;48.750;9.314;2023-08-24T02:05:11;14.30;;;12.73;;
40675;SDS011;26359;48.750;9.314;2023-08-24T02:07:38;14.68;;;13.48;;
40675;SDS011;26359;48.750;9.314;2023-08-24T02:10:04;13.98;;;12.75;;
40675;SDS011;26359;48.750;9.314;2023-08-24T02:12:30;14.13;;;12.80;;
40675;SDS011;26359;48.750;9.314;2023-08-24T02:14:56;14.25;;;13.02;;
40675;SDS011;26359;48.750;9.314;2023-08-24T02:17:21;17.38;;;15.57;;
40675;SDS011;26359;48.750;9.314;2023-08-24T02:19:47;18.00;;;16.45;;
40675;SDS011;26359;48.750;9.314;2023-08-24T02:22:12;21.38;;;19.92;;
40675;SDS011;26359;48.750;9.314;2023-08-24T02:24:38;21.73;;;20.33;;
40675;SDS011;26359;48.750;9.314;2023-08-24T02:27:04;28.08;;;26.17;;
40675;SDS011;26359;48.750;9.314;2023-08-24T02:29:29;27.30;;;25.33;;
40675;SDS011;26359;48.750;9.314;2023-08-24T02:31:55;26.73;;;24.75;;
40675;SDS011;26359;48.750;9.314;2023-08-24T02:34:21;26.10;;;24.30;;
40675;SDS011;26359;48.750;9.314;2023-08-24T02:36:46;27.60;;;25.70;;
40675;SDS011;26359;48.750;9.314;2023-08-24T02:39:12;27.17;;;24.67;;
40675;SDS011;26359;48.750;9.314;2023-08-24T02:41:38;21.75;;;19.95;;
40675;SDS011;26359;48.750;9.314;2023-08-24T02:44:03;21.50;;;19.83;;
40675;SDS011;26359;48.750;9.314;2023-08-24T02:46:29;22.08;;;20.38;;
40675;SDS011;26359;48.750;9.314;2023-08-24T02:48:55;19.33;;;17.85;;
40675;SDS011;26359;48.750;9.314;2023-08-24T02:51:21;20.08;;;18.48;;
40675;SDS011;26359;48.750;9.314;2023-08-24T02:53:47;17.77;;;16.08;;
40675;SDS011;26359;48.750;9.314;2023-08-24T02:56:13;13.75;;;12.68;;
40675;SDS011;26359;48.750;9.314;2023-08-24T02:58:39;13.60;;;12.25;;
40675;SDS011;26359;48.750;9.314;2023-08-24T03:01:05;13.85;;;12.65;;
40675;SDS011;26359;48.750;9.314;2023-08-24T03:03:32;14.35;;;13.07;;
40675;SDS011;26359;48.750;9.314;2023-08-24T03:06:02;12.85;;;11.10;;
40675;SDS011;26359;48.750;9.314;2023-08-24T03:08:32;13.45;;;12.23;;
40675;SDS011;26359;48.750;9.314;2023-08-24T03:10:59;15.63;;;14.32;;
40675;SDS011;26359;48.750;9.314;2023-08-24T03:13:25;13.73;;;12.60;;
40675;SDS011;26359;48.750;9.314;2023-08-24T03:15:51;14.93;;;13.50;;
40675;SDS011;26359;48.750;9.314;2023-08-24T03:18:17;16.70;;;15.27;;
40675;SDS011;26359;48.750;9.314;2023-08-24T03:20:46;16.20;;;14.90;;
40675;SDS011;26359;48.750;9.314;2023-08-24T03:23:12;14.02;;;12.75;;
40675;SDS011;26359;48.750;9.314;2023-08-24T03:25:39;12.70;;;11.68;;
40675;SDS011;26359;48.750;9.314;2023-08-24T03:28:06;13.30;;;12.07;;
40675;SDS011;26359;48.750;9.314;2023-08-24T03:30:35;14.32;;;13.13;;
40675;SDS011;26359;48.750;9.314;2023-08-24T03:33:02;16.23;;;14.93;;
40675;SDS011;26359;48.750;9.314;2023-08-24T03:35:30;17.45;;;15.85;;
40675;SDS011;26359;48.750;9.314;2023-08-24T03:37:55;17.45;;;16.15;;
40675;SDS011;26359;48.750;9.314;2023-08-24T03:40:22;15.32;;;12.57;;
40675;SDS011;26359;48.750;9.314;2023-08-24T03:42:48;14.27;;;13.05;;
40675;SDS011;26359;48.750;9.314;2023-08-24T03:45:13;14.45;;;13.35;;
40675;SDS011;26359;48.750;9.314;2023-08-24T03:47:39;21.15;;;19.63;;
40675;SDS011;26359;48.750;9.314;2023-08-24T03:50:04;14.30;;;13.00;;
40675;SDS011;26359;48.750;9.314;2023-08-24T03:52:30;13.15;;;12.15;;
40675;SDS011;26359;48.750;9.314;2023-08-24T03:54:56;12.05;;;10.88;;
40675;SDS011;26359;48.750;9.314;2023-08-24T03:57:22;12.82;;;11.85;;
40675;SDS011;26359;48.750;9.314;2023-08-24T03:59:47;13.45;;;12.32;;
40675;SDS011;26359;48.750;9.314;2023-08-24T04:02:13;19.17;;;17.50;;
40675;SDS011;26359;48.750;9.314;2023-08-24T04:04:39;15.52;;;14.05;;
40675;SDS011;26359;48.750;9.314;2023-08-24T04:07:05;23.42;;;21.73;;
40675;SDS011;26359;48.750;9.314;2023-08-24T04:09:30;21.15;;;19.55;;
40675;SDS011;26359;48.750;9.314;2023-08-24T04:11:56;30.55;;;28.63;;
40675;SDS011;26359;48.750;9.314;2023-08-24T04:14:21;37.22;;;34.75;;
40675;SDS011;26359;48.750;9.314;2023-08-24T04:16:47;39.00;;;36.58;;
40675;SDS011;26359;48.750;9.314;2023-08-24T04:19:13;22.40;;;20.85;;
40675;SDS011;26359;48.750;9.314;2023-08-24T04:21:38;19.17;;;17.58;;
40675;SDS011;26359;48.750;9.314;2023-08-24T04:24:04;18.73;;;16.88;;
40675;SDS011;26359;48.750;9.314;2023-08-24T04:26:30;17.23;;;15.52;;
40675;SDS011;26359;48.750;9.314;2023-08-24T04:28:56;16.73;;;15.13;;
40675;SDS011;26359;48.750;9.314;2023-08-24T04:31:21;15.15;;;13.85;;
40675;SDS011;26359;48.750;9.314;2023-08-24T04:33:47;16.00;;;14.43;;
40675;SDS011;26359;48.750;9.314;2023-08-24T04:36:12;15.35;;;13.85;;
40675;SDS011;26359;48.750;9.314;2023-08-24T04:38:38;13.98;;;12.57;;
40675;SDS011;26359;48.750;9.314;2023-08-24T04:41:03;15.68;;;14.35;;
40675;SDS011;26359;48.750;9.314;2023-08-24T04:43:33;17.58;;;13.23;;
40675;SDS011;26359;48.750;9.314;2023-08-24T04:45:59;18.58;;;17.02;;
40675;SDS011;26359;48.750;9.314;2023-08-24T04:48:24;18.50;;;16.80;;
40675;SDS011;26359;48.750;9.314;2023-08-24T04:50:51;17.27;;;13.93;;
40675;SDS011;26359;48.750;9.314;2023-08-24T04:53:21;14.55;;;13.23;;
40675;SDS011;26359;48.750;9.314;2023-08-24T04:55:47;17.65;;;16.02;;
40675;SDS011;26359;48.750;9.314;2023-08-24T04:58:12;19.23;;;15.98;;
40675;SDS011;26359;48.750;9.314;2023-08-24T05:00:38;21.10;;;19.40;;
40675;SDS011;26359;48.750;9.314;2023-08-24T05:03:04;16.20;;;14.60;;
40675;SDS011;26359;48.750;9.314;2023-08-24T05:05:32;16.65;;;15.27;;
40675;SDS011;26359;48.750;9.314;2023-08-24T05:07:58;16.50;;;15.07;;
40675;SDS011;26359;48.750;9.314;2023-08-24T05:10:25;17.20;;;15.63;;
40675;SDS011;26359;48.750;9.314;2023-08-24T05:12:50;18.38;;;15.32;;
40675;SDS011;26359;48.750;9.314;2023-08-24T05:15:16;19.30;;;17.75;;
40675;SDS011;26359;48.750;9.314;2023-08-24T05:17:42;22.63;;;20.60;;
40675;SDS011;26359;48.750;9.314;2023-08-24T05:20:07;20.13;;;18.42;;
40675;SDS011;26359;48.750;9.314;2023-08-24T05:22:35;20.73;;;18.77;;
40675;SDS011;26359;48.750;9.314;2023-08-24T05:25:01;22.25;;;20.65;;
40675;SDS011;26359;48.750;9.314;2023-08-24T05:27:27;19.75;;;18.00;;
40675;SDS011;26359;48.750;9.314;2023-08-24T05:29:53;19.15;;;17.63;;
40675;SDS011;26359;48.750;9.314;2023-08-24T05:32:18;19.45;;;17.80;;
40675;SDS011;26359;48.750;9.314;2023-08-24T05:34:45;19.45;;;17.75;;
40675;SDS011;26359;48.750;9.314;2023-08-24T05:37:10;31.02;;;29.02;;
40675;SDS011;26359;48.750;9.314;2023-08-24T05:39:36;25.50;;;23.20;;
40675;SDS011;26359;48.750;9.314;2023-08-24T05:42:02;35.95;;;33.47;;
40675;SDS011;26359;48.750;9.314;2023-08-24T05:44:27;27.98;;;26.00;;
40675;SDS011;26359;48.750;9.314;2023-08-24T05:46:53;28.23;;;25.58;;
40675;SDS011;26359;48.750;9.314;2023-08-24T05:49:18;32.20;;;29.27;;
40675;SDS011;26359;48.750;9.314;2023-08-24T05:51:44;29.23;;;26.67;;
40675;SDS011;26359;48.750;9.314;2023-08-24T05:54:09;27.13;;;25.00;;
40675;SDS011;26359;48.750;9.314;2023-08-24T05:56:35;32.90;;;30.80;;
40675;SDS011;26359;48.750;9.314;2023-08-24T05:59:01;32.47;;;29.83;;
40675;SDS011;26359;48.750;9.314;2023-08-24T06:01:26;28.17;;;25.98;;
40675;SDS011;26359;48.750;9.314;2023-08-24T06:03:52;24.63;;;22.90;;
40675;SDS011;26359;48.750;9.314;2023-08-24T06:06:17;23.40;;;21.52;;
40675;SDS011;26359;48.750;9.314;2023-08-24T06:08:43;23.40;;;21.30;;
40675;SDS011;26359;48.750;9.314;2023-08-24T06:11:09;36.15;;;33.58;;
40675;SDS011;26359;48.750;9.314;2023-08-24T06:13:34;23.17;;;21.27;;
40675;SDS011;26359;48.750;9.314;2023-08-24T06:16:00;38.15;;;35.17;;
40675;SDS011;26359;48.750;9.314;2023-08-24T06:18:27;22.80;;;20.75;;
40675;SDS011;26359;48.750;9.314;2023-08-24T06:20:53;21.70;;;19.48;;
40675;SDS011;26359;48.750;9.314;2023-08-24T06:23:18;21.05;;;19.23;;
40675;SDS011;26359;48.750;9.314;2023-08-24T06:25:45;21.60;;;19.90;;
40675;SDS011;26359;48.750;9.314;2023-08-24T06:28:11;23.60;;;21.42;;
40675;SDS011;26359;48.750;9.314;2023-08-24T06:30:40;28.40;;;26.00;;
40675;SDS011;26359;48.750;9.314;2023-08-24T06:33:07;23.70;;;21.90;;
40675;SDS011;26359;48.750;9.314;2023-08-24T06:35:33;30.42;;;28.17;;
40675;SDS011;26359;48.750;9.314;2023-08-24T06:37:59;28.83;;;26.77;;
40675;SDS011;26359;48.750;9.314;2023-08-24T06:40:25;44.65;;;41.70;;
40675;SDS011;26359;48.750;9.314;2023-08-24T06:42:51;30.58;;;28.17;;
40675;SDS011;26359;48.750;9.314;2023-08-24T06:45:16;85.07;;;79.97;;
40675;SDS011;26359;48.750;9.314;2023-08-24T06:47:43;35.65;;;33.10;;
40675;SDS011;26359;48.750;9.314;2023-08-24T06:50:09;84.22;;;77.55;;
40675;SDS011;26359;48.750;9.314;2023-08-24T06:52:35;54.28;;;50.20;;
40675;SDS011;26359;48.750;9.314;2023-08-24T06:55:00;61.33;;;56.28;;
40675;SDS011;26359;48.750;9.314;2023-08-24T06:57:26;46.28;;;43.15;;
40675;SDS011;26359;48.750;9.314;2023-08-24T06:59:52;31.85;;;29.63;;
40675;SDS011;26359;48.750;9.314;2023-08-24T07:02:17;100.82;;;94.95;;
40675;SDS011;26359;48.750;9.314;2023-08-24T07:04:43;88.32;;;83.07;;
40675;SDS011;26359;48.750;9.314;2023-08-24T07:07:09;101.93;;;95.35;;
40675;SDS011;26359;48.750;9.314;2023-08-24T07:09:35;78.78;;;74.13;;
40675;SDS011;26359;48.750;9.314;2023-08-24T07:12:03;103.75;;;98.03;;
40675;SDS011;26359;48.750;9.314;2023-08-24T07:14:32;94.93;;;89.28;;
40675;SDS011;26359;48.750;9.314;2023-08-24T07:17:00;75.68;;;71.35;;
40675;SDS011;26359;48.750;9.314;2023-08-24T07:19:26;83.20;;;78.22;;
40675;SDS011;26359;48.750;9.314;2023-08-24T07:21:52;88.50;;;83.55;;
40675;SDS011;26359;48.750;9.314;2023-08-24T07:24:17;66.68;;;62.92;;
40675;SDS011;26359;48.750;9.314;2023-08-24T07:26:47;33.30;;;31.23;;
40675;SDS011;26359;48.750;9.314;2023-08-24T07:29:13;17.30;;;15.88;;
40675;SDS011;26359;48.750;9.314;2023-08-24T07:31:39;18.13;;;16.48;;
40675;SDS011;26359;48.750;9.314;2023-08-24T07:34:04;15.07;;;13.73;;
40675;SDS011;26359;48.750;9.314;2023-08-24T07:36:30;20.10;;;18.52;;
40675;SDS011;26359;48.750;9.314;2023-08-24T07:38:56;23.20;;;21.33;;
40675;SDS011;26359;48.750;9.314;2023-08-24T07:41:21;19.95;;;18.02;;
40675;SDS011;26359;48.750;9.314;2023-08-24T07:43:47;20.48;;;19.08;;
40675;SDS011;26359;48.750;9.314;2023-08-24T07:46:13;17.83;;;16.33;;
40675;SDS011;26359;48.750;9.314;2023-08-24T07:48:39;21.38;;;19.77;;
40675;SDS011;26359;48.750;9.314;2023-08-24T07:51:04;30.90;;;28.92;;
40675;SDS011;26359;48.750;9.314;2023-08-24T07:53:30;40.10;;;36.95;;
40675;SDS011;26359;48.750;9.314;2023-08-24T07:55:57;32.35;;;30.10;;
40675;SDS011;26359;48.750;9.314;2023-08-24T07:58:23;22.80;;;15.38;;
40675;SDS011;26359;48.750;9.314;2023-08-24T08:00:50;20.05;;;14.10;;
40675;SDS011;26359;48.750;9.314;2023-08-24T08:03:17;13.45;;;12.27;;
40675;SDS011;26359;48.750;9.314;2023-08-24T08:05:44;16.23;;;14.77;;
40675;SDS011;26359;48.750;9.314;2023-08-24T08:08:10;18.88;;;17.13;;
40675;SDS011;26359;48.750;9.314;2023-08-24T08:10:36;15.25;;;13.90;;
40675;SDS011;26359;48.750;9.314;2023-08-24T08:13:01;16.13;;;14.93;;
40675;SDS011;26359;48.750;9.314;2023-08-24T08:15:27;16.30;;;14.88;;
40675;SDS011;26359;48.750;9.314;2023-08-24T08:17:52;16.45;;;15.35;;
40675;SDS011;26359;48.750;9.314;2023-08-24T08:20:18;16.17;;;14.80;;
40675;SDS011;26359;48.750;9.314;2023-08-24T08:22:44;24.83;;;16.75;;
40675;SDS011;26359;48.750;9.314;2023-08-24T08:25:09;32.78;;;27.65;;
40675;SDS011;26359;48.750;9.314;2023-08-24T08:27:37;35.28;;;32.05;;
40675;SDS011;26359;48.750;9.314;2023-08-24T08:30:02;37.38;;;34.22;;
40675;SDS011;26359;48.750;9.314;2023-08-24T08:32:29;24.52;;;22.95;;
40675;SDS011;26359;48.750;9.314;2023-08-24T08:34:55;24.85;;;23.15;;
40675;SDS011;26359;48.750;9.314;2023-08-24T08:37:23;17.88;;;16.65;;
40675;SDS011;26359;48.750;9.314;2023-08-24T08:39:49;14.35;;;13.15;;
40675;SDS011;26359;48.750;9.314;2023-08-24T08:42:14;16.33;;;14.75;;
40675;SDS011;26359;48.750;9.314;2023-08-24T08:44:41;25.10;;;22.58;;
40675;SDS011;26359;48.750;9.314;2023-08-24T08:47:08;56.53;;;15.00;;
40675;SDS011;26359;48.750;9.314;2023-08-24T08:49:36;23.48;;;21.63;;
40675;SDS011;26359;48.750;9.314;2023-08-24T08:52:03;17.30;;;15.48;;
40675;SDS011;26359;48.750;9.314;2023-08-24T08:54:30;12.32;;;11.10;;
40675;SDS011;26359;48.750;9.314;2023-08-24T08:56:56;11.48;;;10.52;;
40675;SDS011;26359;48.750;9.314;2023-08-24T08:59:21;12.02;;;10.95;;
40675;SDS011;26359;48.750;9.314;2023-08-24T09:01:48;10.52;;;9.73;;
40675;SDS011;26359;48.750;9.314;2023-08-24T09:04:15;10.60;;;9.68;;
40675;SDS011;26359;48.750;9.314;2023-08-24T09:06:41;15.95;;;14.68;;
40675;SDS011;26359;48.750;9.314;2023-08-24T09:09:08;10.63;;;9.60;;
40675;SDS011;26359;48.750;9.314;2023-08-24T09:11:33;11.32;;;9.70;;
40675;SDS011;26359;48.750;9.314;2023-08-24T09:13:59;11.40;;;10.52;;
40675;SDS011;26359;48.750;9.314;2023-08-24T09:16:24;12.38;;;10.98;;
40675;SDS011;26359;48.750;9.314;2023-08-24T09:18:55;14.93;;;13.43;;
40675;SDS011;26359;48.750;9.314;2023-08-24T09:21:20;11.70;;;10.63;;
40675;SDS011;26359;48.750;9.314;2023-08-24T09:23:54;16.30;;;15.20;;
40675;SDS011;26359;48.750;9.314;2023-08-24T09:26:27;10.43;;;9.35;;
40675;SDS011;26359;48.750;9.314;2023-08-24T09:29:14;9.25;;;8.45;;
40675;SDS011;26359;48.750;9.314;2023-08-24T09:31:40;9.50;;;8.65;;
40675;SDS011;26359;48.750;9.314;2023-08-24T09:34:09;11.93;;;8.75;;
40675;SDS011;26359;48.750;9.314;2023-08-24T09:36:35;11.80;;;10.77;;
40675;SDS011;26359;48.750;9.314;2023-08-24T09:39:02;18.10;;;16.70;;
40675;SDS011;26359;48.750;9.314;2023-08-24T09:41:39;16.35;;;15.15;;
40675;SDS011;26359;48.750;9.314;2023-08-24T09:44:05;13.35;;;12.15;;
40675;SDS011;26359;48.750;9.314;2023-08-24T09:46:31;12.65;;;11.43;;
40675;SDS011;26359;48.750;9.314;2023-08-24T09:48:57;11.88;;;10.70;;
40675;SDS011;26359;48.750;9.314;2023-08-24T09:51:26;15.88;;;14.38;;
40675;SDS011;26359;48.750;9.314;2023-08-24T09:53:52;14.07;;;12.88;;
40675;SDS011;26359;48.750;9.314;2023-08-24T09:56:25;13.18;;;11.85;;
40675;SDS011;26359;48.750;9.314;2023-08-24T09:58:53;12.95;;;10.00;;
40675;SDS011;26359;48.750;9.314;2023-08-24T10:01:20;11.40;;;8.50;;
40675;SDS011;26359;48.750;9.314;2023-08-24T10:03:50;14.32;;;10.23;;
40675;SDS011;26359;48.750;9.314;2023-08-24T10:06:20;12.90;;;11.85;;
40675;SDS011;26359;48.750;9.314;2023-08-24T10:08:50;13.77;;;12.73;;
40675;SDS011;26359;48.750;9.314;2023-08-24T10:11:20;17.80;;;16.50;;
40675;SDS011;26359;48.750;9.314;2023-08-24T10:13:52;22.73;;;21.08;;
40675;SDS011;26359;48.750;9.314;2023-08-24T10:16:35;22.35;;;20.92;;
40675;SDS011;26359;48.750;9.314;2023-08-24T10:19:02;19.40;;;17.55;;
40675;SDS011;26359;48.750;9.314;2023-08-24T10:21:29;18.50;;;17.10;;
40675;SDS011;26359;48.750;9.314;2023-08-24T10:23:56;18.42;;;17.13;;
40675;SDS011;26359;48.750;9.314;2023-08-24T10:26:23;21.90;;;20.50;;
40675;SDS011;26359;48.750;9.314;2023-08-24T10:28:52;20.23;;;18.85;;
40675;SDS011;26359;48.750;9.314;2023-08-24T10:31:18;16.42;;;14.85;;
40675;SDS011;26359;48.750;9.314;2023-08-24T10:33:45;17.25;;;15.95;;
40675;SDS011;26359;48.750;9.314;2023-08-24T10:36:15;14.00;;;12.88;;
40675;SDS011;26359;48.750;9.314;2023-08-24T10:38:42;19.58;;;18.17;;
40675;SDS011;26359;48.750;9.314;2023-08-24T10:41:08;21.67;;;20.10;;
40675;SDS011;26359;48.750;9.314;2023-08-24T10:43:35;11.02;;;10.13;;
40675;SDS011;26359;48.750;9.314;2023-08-24T10:46:02;38.53;;;36.25;;
40675;SDS011;26359;48.750;9.314;2023-08-24T10:51:19;44.30;;;41.38;;
40675;SDS011;26359;48.750;9.314;2023-08-24T10:53:51;55.03;;;51.55;;
40675;SDS011;26359;48.750;9.314;2023-08-24T10:56:17;31.63;;;29.17;;
40675;SDS011;26359;48.750;9.314;2023-08-24T10:58:44;57.15;;;53.92;;
40675;SDS011;26359;48.750;9.314;2023-08-24T11:01:14;47.47;;;44.72;;
40675;SDS011;26359;48.750;9.314;2023-08-24T11:03:46;39.97;;;37.53;;
40675;SDS011;26359;48.750;9.314;2023-08-24T11:06:19;20.35;;;18.65;;
40675;SDS011;26359;48.750;9.314;2023-08-24T11:08:46;15.65;;;14.20;;
40675;SDS011;26359;48.750;9.314;2023-08-24T11:11:18;12.32;;;9.90;;
40675;SDS011;26359;48.750;9.314;2023-08-24T11:16:46;12.20;;;11.13;;
40675;SDS011;26359;48.750;9.314;2023-08-24T11:19:12;19.13;;;17.73;;
40675;SDS011;26359;48.750;9.314;2023-08-24T11:21:38;12.68;;;11.50;;
40675;SDS011;26359;48.750;9.314;2023-08-24T11:24:05;10.85;;;9.85;;
40675;SDS011;26359;48.750;9.314;2023-08-24T11:26:31;11.57;;;10.38;;
40675;SDS011;26359;48.750;9.314;2023-08-24T11:28:56;10.50;;;9.38;;
40675;SDS011;26359;48.750;9.314;2023-08-24T11:31:25;10.60;;;9.52;;
40675;SDS011;26359;48.750;9.314;2023-08-24T11:33:54;9.98;;;8.80;;
40675;SDS011;26359;48.750;9.314;2023-08-24T11:36:23;11.88;;;10.10;;
40675;SDS011;26359;48.750;9.314;2023-08-24T11:38:51;11.45;;;9.35;;
40675;SDS011;26359;48.750;9.314;2023-08-24T11:41:18;11.65;;;10.57;;
40675;SDS011;26359;48.750;9.314;2023-08-24T11:43:46;12.15;;;11.13;;
40675;SDS011;26359;48.750;9.314;2023-08-24T11:46:19;12.63;;;11.38;;
40675;SDS011;26359;48.750;9.314;2023-08-24T11:48:45;23.63;;;21.92;;
40675;SDS011;26359;48.750;9.314;2023-08-24T11:51:11;19.75;;;18.30;;
40675;SDS011;26359;48.750;9.314;2023-08-24T11:53:44;25.23;;;23.45;;
40675;SDS011;26359;48.750;9.314;2023-08-24T11:56:14;22.70;;;20.95;;
40675;SDS011;26359;48.750;9.314;2023-08-24T11:58:42;19.23;;;17.10;;
40675;SDS011;26359;48.750;9.314;2023-08-24T12:01:09;16.30;;;14.65;;
40675;SDS011;26359;48.750;9.314;2023-08-24T12:03:35;20.67;;;19.13;;
40675;SDS011;26359;48.750;9.314;2023-08-24T12:06:02;15.52;;;14.13;;
40675;SDS011;26359;48.750;9.314;2023-08-24T12:08:37;14.38;;;12.95;;
40675;SDS011;26359;48.750;9.314;2023-08-24T12:11:09;15.80;;;14.18;;
40675;SDS011;26359;48.750;9.314;2023-08-24T12:13:51;15.50;;;14.40;;
40675;SDS011;26359;48.750;9.314;2023-08-24T12:16:22;12.38;;;11.35;;
40675;SDS011;26359;48.750;9.314;2023-08-24T12:21:18;18.58;;;17.15;;
40675;SDS011;26359;48.750;9.314;2023-08-24T12:23:45;28.15;;;26.45;;
40675;SDS011;26359;48.750;9.314;2023-08-24T12:26:28;16.10;;;14.73;;
40675;SDS011;26359;48.750;9.314;2023-08-24T12:29:15;11.27;;;10.20;;
40675;SDS011;26359;48.750;9.314;2023-08-24T12:31:43;16.65;;;15.40;;
40675;SDS011;26359;48.750;9.314;2023-08-24T12:34:09;38.67;;;36.03;;
40675;SDS011;26359;48.750;9.314;2023-08-24T12:36:35;21.98;;;20.10;;
40675;SDS011;26359;48.750;9.314;2023-08-24T12:39:03;54.42;;;51.13;;
40675;SDS011;26359;48.750;9.314;2023-08-24T12:41:29;56.42;;;52.67;;
40675;SDS011;26359;48.750;9.314;2023-08-24T12:43:55;51.10;;;48.22;;
40675;SDS011;26359;48.750;9.314;2023-08-24T12:46:21;21.83;;;20.13;;
40675;SDS011;26359;48.750;9.314;2023-08-24T12:48:47;18.60;;;17.40;;
40675;SDS011;26359;48.750;9.314;2023-08-24T12:51:12;19.88;;;18.23;;
40675;SDS011;26359;48.750;9.314;2023-08-24T12:53:38;14.30;;;12.63;;
40675;SDS011;26359;48.750;9.314;2023-08-24T12:56:04;16.65;;;15.15;;
40675;SDS011;26359;48.750;9.314;2023-08-24T12:58:29;12.52;;;11.40;;
40675;SDS011;26359;48.750;9.314;2023-08-24T13:00:55;12.35;;;11.25;;
40675;SDS011;26359;48.750;9.314;2023-08-24T13:03:21;12.40;;;9.95;;
40675;SDS011;26359;48.750;9.314;2023-08-24T13:05:46;12.43;;;11.00;;
40675;SDS011;26359;48.750;9.314;2023-08-24T13:08:12;34.17;;;31.90;;
40675;SDS011;26359;48.750;9.314;2023-08-24T13:10:38;15.75;;;9.45;;
40675;SDS011;26359;48.750;9.314;2023-08-24T13:13:04;70.20;;;66.28;;
40675;SDS011;26359;48.750;9.314;2023-08-24T13:15:29;76.95;;;72.60;;
40675;SDS011;26359;48.750;9.314;2023-08-24T13:17:55;101.75;;;96.35;;
40675;SDS011;26359;48.750;9.314;2023-08-24T13:20:22;83.03;;;78.38;;
40675;SDS011;26359;48.750;9.314;2023-08-24T13:22:48;19.73;;;18.23;;
40675;SDS011;26359;48.750;9.314;2023-08-24T13:25:13;22.13;;;20.52;;
40675;SDS011;26359;48.750;9.314;2023-08-24T13:27:39;24.20;;;21.00;;
40675;SDS011;26359;48.750;9.314;2023-08-24T13:30:05;21.95;;;20.40;;
40675;SDS011;26359;48.750;9.314;2023-08-24T13:32:31;17.98;;;16.48;;
40675;SDS011;26359;48.750;9.314;2023-08-24T13:34:56;28.50;;;26.33;;
40675;SDS011;26359;48.750;9.314;2023-08-24T13:37:22;38.92;;;36.42;;
40675;SDS011;26359;48.750;9.314;2023-08-24T13:39:49;43.95;;;40.97;;
40675;SDS011;26359;48.750;9.314;2023-08-24T13:42:15;41.88;;;38.60;;
40675;SDS011;26359;48.750;9.314;2023-08-24T13:44:40;18.52;;;16.80;;
40675;SDS011;26359;48.750;9.314;2023-08-24T13:47:06;17.40;;;15.85;;
40675;SDS011;26359;48.750;9.314;2023-08-24T13:49:31;15.63;;;14.32;;
40675;SDS011;26359;48.750;9.314;2023-08-24T13:51:57;34.30;;;31.27;;
40675;SDS011;26359;48.750;9.314;2023-08-24T13:54:22;28.75;;;26.30;;
40675;SDS011;26359;48.750;9.314;2023-08-24T13:56:48;17.38;;;15.20;;
40675;SDS011;26359;48.750;9.314;2023-08-24T13:59:19;16.08;;;14.48;;
40675;SDS011;26359;48.750;9.314;2023-08-24T14:01:44;15.88;;;14.30;;
40675;SDS011;26359;48.750;9.314;2023-08-24T14:04:10;15.32;;;13.93;;
40675;SDS011;26359;48.750;9.314;2023-08-24T14:06:36;15.77;;;12.60;;
40675;SDS011;26359;48.750;9.314;2023-08-24T14:09:02;17.70;;;14.68;;
40675;SDS011;26359;48.750;9.314;2023-08-24T14:11:28;20.25;;;18.15;;
40675;SDS011;26359;48.750;9.314;2023-08-24T14:13:54;18.15;;;16.23;;
40675;SDS011;26359;48.750;9.314;2023-08-24T14:16:19;13.55;;;12.27;;
40675;SDS011;26359;48.750;9.314;2023-08-24T14:18:45;15.45;;;13.85;;
40675;SDS011;26359;48.750;9.314;2023-08-24T14:21:11;16.50;;;12.88;;
40675;SDS011;26359;48.750;9.314;2023-08-24T14:23:37;28.58;;;26.40;;
40675;SDS011;26359;48.750;9.314;2023-08-24T14:26:03;13.13;;;10.45;;
40675;SDS011;26359;48.750;9.314;2023-08-24T14:31:23;20.80;;;18.85;;
40675;SDS011;26359;48.750;9.314;2023-08-24T14:33:50;28.42;;;26.23;;